Time;durP1;ratioP1;P1;durP2;ratioP2;P2;SDS_P1;SDS_P2;PMS_P1;PMS_P2;Temp;Humidity;BMP_temperature;BMP_pressure;BME280_temperature;BME280_humidity;BME280_pressure;Samples;Min_cycle;Max_cycle;Signal;HPM_P1;HPM_P2
2021/09/01 00:34:57;;;;;;;10.80;6.32;;;15.90;99.90;;;13.13;100.00;102352.09;2569275;30;137331;-40
2021/09/01 00:37:25;;;;;;;13.18;5.78;;;14.60;99.90;;;13.15;100.00;102352.75;2569117;30;137555;-39
2021/09/01 00:39:53;;;;;;;;;;;14.60;99.90;;;13.18;100.00;102360.59;2568722;30;138325;-39
2021/09/01 00:42:20;;;;;;;14.93;6.45;;;14.60;99.90;;;13.20;100.00;102352.16;2568344;30;138043;-39
2021/09/01 00:44:48;;;;;;;11.13;6.00;;;14.60;99.90;;;13.23;100.00;102355.38;2567669;30;137678;-40
2021/09/01 00:47:20;;;;;;;12.48;6.30;;;14.60;99.90;;;13.22;100.00;102353.66;2569696;30;137210;-39
2021/09/01 00:49:50;;;;;;;10.73;5.35;;;14.60;99.90;;;13.21;100.00;102348.38;2566768;30;137870;-39
2021/09/01 00:52:19;;;;;;;15.10;6.50;;;14.70;99.90;;;13.26;100.00;102345.91;2569308;30;136810;-40
2021/09/01 00:54:48;;;;;;;15.57;6.30;;;14.70;99.90;;;13.26;100.00;102343.19;2567606;30;137460;-39
2021/09/01 00:57:20;;;;;;;13.15;6.15;;;14.70;99.90;;;13.29;100.00;102348.28;2569745;30;137584;-39
2021/09/01 00:59:47;;;;;;;11.70;6.30;;;14.70;99.90;;;13.35;100.00;102347.50;2569921;30;139352;-38
2021/09/01 01:02:15;;;;;;;11.90;5.80;;;14.70;99.90;;;13.35;100.00;102343.88;2569877;30;137495;-39
2021/09/01 01:04:44;;;;;;;14.75;6.30;;;14.70;99.90;;;13.43;100.00;102348.44;2568468;30;138383;-39
2021/09/01 01:07:12;;;;;;;12.23;5.47;;;14.80;99.90;;;13.44;100.00;102342.78;2569974;30;138528;-39
2021/09/01 01:09:45;;;;;;;12.30;5.65;;;14.80;99.90;;;13.47;100.00;102338.78;2568894;30;139500;-39
2021/09/01 01:12:21;;;;;;;9.38;5.28;;;14.80;99.90;;;13.45;100.00;102344.47;2568114;30;137799;-39
2021/09/01 01:14:52;;;;;;;10.15;5.18;;;14.80;99.90;;;13.47;100.00;102349.72;2567818;30;138339;-39
2021/09/01 01:17:24;;;;;;;10.75;5.60;;;14.80;99.90;;;13.48;100.00;102349.56;2569774;30;138054;-39
2021/09/01 01:19:53;;;;;;;12.73;5.45;;;14.80;99.90;;;13.49;100.00;102350.38;2569007;30;137461;-39
2021/09/01 01:22:26;;;;;;;12.13;5.85;;;14.90;99.90;;;13.49;99.43;102355.88;2567028;30;137706;-39
2021/09/01 01:24:59;;;;;;;13.25;5.13;;;14.80;99.90;;;13.58;98.12;102356.59;2569249;30;138215;-39
2021/09/01 01:27:44;;;;;;;9.68;5.30;;;14.90;99.90;;;13.56;96.03;102359.56;2568747;30;137666;-39
2021/09/01 01:30:21;;;;;;;12.88;5.22;;;14.90;99.90;;;13.58;96.51;102346.50;2569863;30;138378;-39
2021/09/01 01:32:52;;;;;;;9.00;4.57;;;14.90;99.90;;;13.59;96.95;102353.69;2568649;30;136919;-38
2021/09/01 01:35:42;;;;;;;9.38;4.55;;;14.90;99.90;;;13.57;96.41;102357.66;2568389;30;137799;-39
2021/09/01 01:38:14;;;;;;;10.55;4.57;;;14.90;99.90;;;13.55;96.32;102357.84;2569936;30;138371;-38
2021/09/01 01:40:43;;;;;;;8.90;4.10;;;14.90;99.90;;;13.56;96.88;102362.28;2566077;30;137865;-39
2021/09/01 01:43:11;;;;;;;10.45;4.60;;;14.90;99.90;;;13.57;96.72;102358.50;2569355;30;138272;-39
2021/09/01 01:45:41;;;;;;;;;;;14.90;99.90;;;13.55;96.28;102357.84;2568800;30;137458;-39
2021/09/01 01:48:13;;;;;;;9.55;4.20;;;14.90;99.90;;;13.57;96.40;102355.75;2569231;30;138005;-39
2021/09/01 01:50:44;;;;;;;8.38;4.22;;;14.90;99.90;;;13.55;96.38;102355.13;2566851;30;137366;-39
2021/09/01 01:53:12;;;;;;;9.30;4.50;;;14.90;99.90;;;13.55;95.93;102360.59;2567480;30;136953;-38
2021/09/01 01:55:40;;;;;;;11.73;4.43;;;14.90;99.90;;;13.56;96.13;102365.03;2570799;30;138170;-39
2021/09/01 01:58:07;;;;;;;10.50;4.40;;;14.90;99.90;;;13.56;95.59;102365.03;2568211;30;138186;-39
2021/09/01 02:00:35;;;;;;;11.98;4.13;;;14.90;99.90;;;13.57;96.33;102364.00;2568599;30;138557;-38
2021/09/01 02:03:03;;;;;;;;;;;14.90;99.90;;;13.58;96.77;102368.44;2567560;30;138222;-39
2021/09/01 02:05:31;;;;;;;11.98;4.63;;;14.90;99.90;;;13.60;96.80;102369.09;2569311;30;138842;-41
2021/09/01 02:07:59;;;;;;;9.45;3.95;;;15.00;99.90;;;13.57;96.62;102364.00;2566710;30;138193;-39
2021/09/01 02:10:26;;;;;;;8.75;4.60;;;14.90;99.90;;;13.55;95.74;102367.97;2568232;30;139211;-38
2021/09/01 02:12:54;;;;;;;8.95;4.22;;;14.90;99.90;;;13.52;95.29;102369.19;2567640;30;138355;-39
2021/09/01 02:15:22;;;;;;;9.07;4.25;;;14.90;99.90;;;13.52;95.42;102374.66;2571415;30;137117;-39
2021/09/01 02:17:49;;;;;;;7.93;3.92;;;14.90;99.90;;;13.53;96.13;102373.66;2567596;30;137090;-39
2021/09/01 02:20:17;;;;;;;9.45;4.53;;;14.90;99.90;;;13.53;95.82;102376.41;2569410;30;137107;-39
2021/09/01 02:22:47;;;;;;;10.90;4.85;;;14.90;99.90;;;13.52;94.43;102369.19;2570390;30;137110;-39
2021/09/01 02:25:15;;;;;;;9.80;4.05;;;14.90;99.90;;;13.54;95.28;102366.25;2567167;30;138367;-39
2021/09/01 02:27:43;;;;;;;9.85;5.18;;;14.90;99.90;;;13.57;95.35;102363.13;2566901;30;137266;-39
2021/09/01 02:30:12;;;;;;;9.70;4.53;;;14.90;99.90;;;13.55;95.28;102366.09;2569075;30;138360;-39
2021/09/01 02:32:40;;;;;;;8.05;4.10;;;14.90;99.90;;;13.52;94.98;102359.09;2568978;30;137319;-40
2021/09/01 02:35:08;;;;;;;8.77;4.43;;;14.90;99.90;;;13.52;95.70;102352.72;2568766;30;139337;-39
2021/09/01 02:37:36;;;;;;;;;;;14.90;99.90;;;13.55;95.34;102360.59;2570180;30;137458;-39
2021/09/01 02:40:04;;;;;;;10.27;5.45;;;14.90;99.90;;;13.53;94.44;102357.22;2566715;30;138227;-39
2021/09/01 02:42:31;;;;;;;10.63;5.22;;;14.90;99.90;;;13.55;95.06;102357.00;2568329;30;137473;-39
2021/09/01 02:45:00;;;;;;;9.98;5.07;;;14.90;99.90;;;13.54;95.49;102356.16;2569148;30;139168;-38
2021/09/01 02:47:27;;;;;;;18.00;8.75;;;14.90;99.90;;;13.55;94.75;102357.84;2567028;30;137030;-39
2021/09/01 02:49:55;;;;;;;12.98;7.70;;;14.90;99.90;;;13.53;94.44;102351.72;2569258;30;138309;-39
2021/09/01 02:52:22;;;;;;;19.25;10.50;;;14.90;99.90;;;13.49;92.42;102359.47;2568507;30;137572;-39
2021/09/01 02:54:50;;;;;;;17.33;8.43;;;14.90;99.90;;;13.51;92.05;102353.78;2569006;30;137062;-40
2021/09/01 02:57:18;;;;;;;16.83;9.05;;;14.90;99.90;;;13.52;92.57;102356.34;2572558;30;137002;-39
2021/09/01 02:59:45;;;;;;;17.30;9.93;;;14.90;99.90;;;13.52;93.62;102358.22;2568002;30;138773;-39
2021/09/01 03:02:12;;;;;;;16.77;10.02;;;14.90;99.90;;;13.52;93.93;102350.00;2569325;30;137032;-39
2021/09/01 03:04:40;;;;;;;16.48;8.85;;;14.90;99.90;;;13.49;94.76;102347.66;2569571;30;137698;-40
2021/09/01 03:07:08;;;;;;;16.85;9.15;;;14.90;99.90;;;13.52;95.48;102352.72;2568089;30;138549;-39
2021/09/01 03:09:35;;;;;;;15.45;8.77;;;14.90;99.90;;;13.49;95.50;102353.13;2569379;30;138595;-39
2021/09/01 03:12:04;;;;;;;15.70;8.70;;;14.80;99.90;;;13.46;94.68;102356.25;2566686;30;137119;-39
2021/09/01 03:14:31;;;;;;;12.00;7.95;;;14.80;99.90;;;13.44;94.49;102356.47;2569375;30;137781;-39
2021/09/01 03:16:59;;;;;;;14.13;7.38;;;14.80;99.90;;;13.43;93.91;102354.78;2570089;30;137119;-39
2021/09/01 03:19:26;;;;;;;18.17;8.50;;;14.80;99.90;;;13.45;94.79;102358.19;2569859;30;138478;-39
2021/09/01 03:21:53;;;;;;;15.60;8.10;;;14.80;99.90;;;13.44;94.42;102361.09;2569997;30;137387;-39
2021/09/01 03:24:21;;;;;;;15.38;7.20;;;14.80;99.90;;;13.44;94.25;102355.59;2570120;30;137416;-38
2021/09/01 03:26:48;;;;;;;15.13;7.68;;;14.80;99.90;;;13.49;94.49;102355.88;2570735;30;137382;-39
2021/09/01 03:29:16;;;;;;;16.00;7.70;;;14.80;99.90;;;13.48;93.23;102359.66;2569431;30;138203;-39
2021/09/01 03:31:44;;;;;;;14.98;7.90;;;14.80;99.90;;;13.47;93.72;102356.09;2568188;30;137339;-39
2021/09/01 03:34:11;;;;;;;15.63;7.55;;;14.80;99.90;;;13.46;93.82;102356.25;2569093;30;138237;-39
2021/09/01 03:36:39;;;;;;;12.52;6.93;;;14.80;99.90;;;13.46;93.39;102364.50;2569781;30;138376;-40
2021/09/01 03:39:06;;;;;;;16.40;7.95;;;14.80;99.90;;;13.42;93.36;102364.00;2569728;30;138173;-39
2021/09/01 03:41:34;;;;;;;15.75;7.45;;;14.80;99.90;;;13.46;93.69;102361.75;2569917;30;137378;-39
2021/09/01 03:44:01;;;;;;;15.15;8.38;;;14.80;99.90;;;13.49;93.69;102361.34;2571004;30;138939;-39
2021/09/01 03:46:29;;;;;;;17.40;8.55;;;14.80;99.90;;;13.47;94.01;102371.66;2569323;30;137752;-39
2021/09/01 03:48:56;;;;;;;20.30;10.50;;;14.80;99.90;;;13.45;94.09;102362.78;2568874;30;138101;-39
2021/09/01 03:51:24;;;;;;;21.48;10.15;;;14.80;99.90;;;13.44;93.80;102361.97;2568897;30;136999;-39
2021/09/01 03:53:51;;;;;;;22.02;10.82;;;14.80;99.90;;;13.46;94.32;102367.22;2568035;30;137815;-39
2021/09/01 03:56:19;;;;;;;22.77;12.05;;;14.80;99.90;;;13.44;94.04;102366.56;2567836;30;137195;-39
2021/09/01 03:58:46;;;;;;;23.92;12.90;;;14.80;99.90;;;13.42;94.14;102372.25;2567564;30;138407;-38
2021/09/01 04:01:14;;;;;;;23.33;14.32;;;14.80;99.90;;;13.44;94.76;102372.94;2568685;30;137763;-39
2021/09/01 04:03:41;;;;;;;26.50;15.48;;;14.80;99.90;;;13.44;95.31;102370.19;2570690;30;138296;-39
2021/09/01 04:06:09;;;;;;;32.35;16.70;;;14.80;99.90;;;13.43;95.46;102371.22;2569722;30;136951;-39
2021/09/01 04:08:37;;;;;;;28.38;16.30;;;14.80;99.90;;;13.43;95.67;102370.38;2566993;30;139704;-39
2021/09/01 04:11:04;;;;;;;30.20;17.15;;;14.80;99.90;;;13.43;95.67;102370.38;2567805;30;137886;-39
2021/09/01 04:13:33;;;;;;;30.63;17.02;;;14.80;99.90;;;13.41;95.99;102367.81;2567531;30;137567;-39
2021/09/01 04:16:02;;;;;;;35.65;20.00;;;14.80;99.90;;;13.44;95.51;102374.81;2569911;30;137783;-39
2021/09/01 04:18:29;;;;;;;35.63;18.00;;;14.80;99.90;;;13.42;95.55;102372.25;2569827;30;137346;-39
2021/09/01 04:20:57;;;;;;;34.83;19.15;;;14.80;99.90;;;13.44;95.97;102380.28;2565682;30;137844;-39
2021/09/01 04:23:24;;;;;;;32.90;18.25;;;14.80;99.90;;;13.44;95.80;102372.06;2570019;30;138218;-39
2021/09/01 04:25:52;;;;;;;33.88;19.25;;;14.80;99.90;;;13.43;96.45;102379.44;2570365;30;137000;-39
2021/09/01 04:28:19;;;;;;;36.72;20.13;;;14.80;99.90;;;13.45;96.97;102382.84;2565181;30;137358;-39
2021/09/01 04:30:47;;;;;;;33.90;19.13;;;14.80;99.90;;;13.43;97.14;102379.44;2569852;30;138100;-39
2021/09/01 04:33:15;;;;;;;39.05;20.15;;;14.80;99.90;;;13.43;97.49;102384.06;2567403;30;138238;-39
2021/09/01 04:35:42;;;;;;;;;;;14.80;99.90;;;13.42;97.30;102383.22;2570244;30;137598;-39
2021/09/01 04:38:10;;;;;;;41.55;21.42;;;14.80;99.90;;;13.41;97.72;102384.25;2570922;30;138278;-39
2021/09/01 04:40:37;;;;;;;37.47;20.38;;;14.80;99.90;;;13.37;97.01;102389.25;2569122;30;137605;-39
2021/09/01 04:43:05;;;;;;;33.55;19.85;;;14.70;99.90;;;13.38;97.17;102390.94;2568159;30;139149;-40
2021/09/01 04:45:33;;;;;;;35.63;19.45;;;14.80;99.90;;;13.35;97.72;102380.38;2570438;30;138486;-39
2021/09/01 04:48:00;;;;;;;37.90;21.55;;;14.70;99.90;;;13.34;97.39;102380.56;2569996;30;137965;-39
2021/09/01 04:50:28;;;;;;;36.00;20.55;;;14.70;99.90;;;13.33;97.07;102381.59;2569907;30;137564;-39
2021/09/01 04:52:56;;;;;;;;;;;14.70;99.90;;;13.34;97.13;102377.81;2571272;30;137502;-38
2021/09/01 04:55:23;;;;;;;34.30;19.58;;;14.70;99.90;;;13.36;97.14;102386.69;2570876;30;137613;-39
2021/09/01 04:57:51;;;;;;;33.35;18.83;;;14.70;99.90;;;13.36;97.63;102387.56;2570251;30;138499;-39
2021/09/01 05:00:19;;;;;;;34.75;20.05;;;14.70;99.90;;;13.41;97.97;102394.34;2569056;30;137393;-39
2021/09/01 05:02:46;;;;;;;;;;;14.70;99.90;;;13.40;98.19;102399.00;2569517;30;137700;-39
2021/09/01 05:05:14;;;;;;;33.58;18.58;;;14.70;99.90;;;13.41;98.55;102394.34;2568617;30;137182;-39
2021/09/01 05:07:41;;;;;;;35.88;20.23;;;14.70;99.90;;;13.43;98.73;102392.28;2568788;30;139033;-39
2021/09/01 05:10:10;;;;;;;31.27;17.92;;;14.80;99.90;;;13.44;99.05;102391.25;2568834;30;137847;-39
2021/09/01 05:12:38;;;;;;;32.70;16.98;;;14.80;99.90;;;13.43;98.99;102395.91;2570199;30;138409;-39
2021/09/01 05:15:06;;;;;;;29.27;17.45;;;14.80;99.90;;;13.43;98.90;102401.38;2568822;30;138069;-39
2021/09/01 05:17:33;;;;;;;30.45;17.67;;;14.80;99.90;;;13.43;98.56;102398.63;2570570;30;139240;-40
2021/09/01 05:20:01;;;;;;;33.10;17.00;;;14.80;99.90;;;13.44;98.01;102402.22;2567812;30;137495;-38
2021/09/01 05:22:31;;;;;;;31.13;16.83;;;14.80;99.90;;;13.46;98.17;102400.13;2570165;30;138444;-39
2021/09/01 05:25:12;;;;;;;30.88;17.23;;;14.80;99.90;;;13.48;98.61;102398.03;2570158;30;137765;-39
2021/09/01 05:27:44;;;;;;;28.88;16.60;;;14.80;99.90;;;13.50;98.91;102402.28;2569465;30;138039;-39
2021/09/01 05:30:17;;;;;;;31.55;16.48;;;14.80;99.90;;;13.51;98.81;102400.38;2569055;30;136945;-39
2021/09/01 05:32:49;;;;;;;24.58;14.60;;;14.90;99.90;;;13.54;98.41;102401.91;2569330;30;138312;-38
2021/09/01 05:35:17;;;;;;;29.15;16.17;;;14.90;99.90;;;13.55;98.13;102400.88;2569666;30;137878;-39
2021/09/01 05:37:45;;;;;;;28.15;14.77;;;14.90;99.90;;;13.57;98.02;102394.16;2568496;30;138900;-39
2021/09/01 05:40:13;;;;;;;23.23;13.13;;;14.90;99.90;;;13.60;97.68;102407.47;2571996;30;137455;-39
2021/09/01 05:42:41;;;;;;;21.60;12.05;;;14.90;99.90;;;13.62;97.40;102397.16;2567350;30;137997;-39
2021/09/01 05:45:09;;;;;;;23.50;12.82;;;14.90;99.90;;;13.64;97.28;102395.06;2567605;30;136928;-39
2021/09/01 05:47:37;;;;;;;22.88;13.45;;;15.00;99.90;;;13.70;97.44;102400.81;2569545;30;138332;-39
2021/09/01 05:50:06;;;;;;;;;;;15.00;99.90;;;13.73;97.47;102404.03;2568599;30;137949;-38
2021/09/01 05:52:34;;;;;;;16.17;8.93;;;15.00;99.90;;;13.76;97.33;102397.28;2567478;30;137464;-39
2021/09/01 05:55:09;;;;;;;18.02;8.18;;;15.00;99.90;;;13.81;97.62;102405.78;2567712;30;138921;-38
2021/09/01 05:57:39;;;;;;;17.08;7.78;;;15.10;99.90;;;13.83;97.36;102405.59;2569002;30;137300;-39
2021/09/01 06:00:13;;;;;;;11.00;6.43;;;15.10;99.90;;;13.86;97.40;102397.81;2569246;30;138226;-40
2021/09/01 06:02:52;;;;;;;11.32;6.30;;;15.10;99.90;;;13.89;97.07;102407.53;2571721;30;137616;-39
2021/09/01 06:05:22;;;;;;;10.18;5.05;;;15.20;99.90;;;13.91;96.39;102399.94;2568851;30;136795;-39
2021/09/01 06:07:56;;;;;;;10.52;4.80;;;15.20;99.90;;;13.94;96.17;102400.41;2570913;30;136932;-39
2021/09/01 06:10:33;;;;;;;9.48;5.15;;;15.20;99.90;;;13.97;95.85;102403.81;2568725;30;137739;-39
2021/09/01 06:13:08;;;;;;;9.32;4.45;;;15.30;99.90;;;14.01;96.06;102397.75;2566398;30;138389;-39
2021/09/01 06:15:39;;;;;;;8.90;4.40;;;15.30;99.90;;;14.07;95.52;102405.19;2570361;30;136887;-39
2021/09/01 06:18:08;;;;;;;10.65;4.20;;;15.40;99.90;;;14.12;95.57;102406.47;2568152;30;139062;-39
2021/09/01 06:20:38;;;;;;;8.57;3.72;;;15.40;99.90;;;14.17;94.54;102410.34;2569135;30;137714;-39
2021/09/01 06:23:06;;;;;;;8.20;3.38;;;15.40;99.90;;;14.19;94.33;102407.38;2567822;30;137710;-39
2021/09/01 06:25:35;;;;;;;8.38;4.00;;;15.50;99.90;;;14.17;93.78;102409.47;2568157;30;137569;-42
2021/09/01 06:28:05;;;;;;;9.43;3.97;;;15.50;99.90;;;14.18;93.65;102409.28;2567491;30;139486;-39
2021/09/01 06:30:34;;;;;;;12.52;4.43;;;15.50;99.90;;;14.23;93.58;102420.50;2568465;30;137917;-39
2021/09/01 06:33:14;;;;;;;6.85;3.67;;;15.50;99.90;;;14.26;94.14;102416.53;2571561;30;138526;-38
2021/09/01 06:35:42;;;;;;;9.60;3.85;;;15.50;99.90;;;14.27;93.29;102414.63;2568406;30;138277;-41
2021/09/01 06:38:10;;;;;;;9.70;3.88;;;15.50;99.90;;;14.35;94.63;102415.34;2568302;30;137610;-40
2021/09/01 06:40:37;;;;;;;9.98;4.28;;;15.60;99.90;;;14.34;93.94;102413.63;2567317;30;138317;-41
2021/09/01 06:43:05;;;;;;;8.90;3.88;;;15.60;99.90;;;14.36;93.25;102413.44;2568086;30;138161;-43
2021/09/01 06:45:32;;;;;;;8.13;3.50;;;15.60;99.90;;;14.39;93.12;102413.06;2567364;30;137359;-41
2021/09/01 06:48:00;;;;;;;8.27;3.58;;;15.60;99.90;;;14.41;93.54;102419.19;2568676;30;137405;-41
2021/09/01 06:50:27;;;;;;;11.18;3.92;;;15.70;99.90;;;14.45;92.81;102420.47;2567937;30;137181;-41
2021/09/01 06:52:55;;;;;;;11.30;4.28;;;15.70;99.90;;;14.47;92.88;102420.31;2567460;30;137320;-41
2021/09/01 06:55:23;;;;;;;8.40;3.70;;;15.70;99.90;;;14.48;92.61;102416.50;2567569;30;136962;-41
2021/09/01 06:57:51;;;;;;;9.70;4.32;;;15.70;99.90;;;14.46;91.93;102419.44;2568535;30;138083;-41
2021/09/01 07:00:20;;;;;;;8.20;3.65;;;15.70;99.90;;;14.50;92.58;102423.47;2567973;30;136817;-41
2021/09/01 07:02:48;;;;;;;8.43;3.90;;;15.70;99.90;;;14.53;91.67;102422.25;2568748;30;137472;-43
2021/09/01 07:05:17;;;;;;;11.70;4.05;;;15.70;99.90;;;14.57;92.05;102423.53;2568618;30;139089;-40
2021/09/01 07:07:46;;;;;;;7.55;3.80;;;15.80;99.90;;;14.60;91.84;102431.38;2567241;30;137780;-41
2021/09/01 07:10:14;;;;;;;12.50;3.92;;;15.80;99.90;;;14.63;92.20;102427.38;2568690;30;138106;-41
2021/09/01 07:12:41;;;;;;;;;;;15.80;99.90;;;14.70;92.27;102427.41;2568307;30;138160;-41
2021/09/01 07:15:09;;;;;;;10.18;3.67;;;15.90;99.90;;;14.72;92.27;102426.19;2566026;30;136733;-41
2021/09/01 07:17:39;;;;;;;8.73;4.05;;;15.90;99.90;;;14.74;91.63;102418.59;2567637;30;137924;-41
2021/09/01 07:20:08;;;;;;;9.68;4.13;;;15.90;99.90;;;14.73;91.15;102418.81;2568756;30;136829;-42
2021/09/01 07:22:38;;;;;;;10.65;4.20;;;15.90;99.90;;;14.73;90.08;102419.66;2569004;30;137549;-40
2021/09/01 07:25:07;;;;;;;10.18;3.90;;;16.00;99.90;;;14.74;89.95;102429.59;2566294;30;137861;-41
2021/09/01 07:27:38;;;;;;;10.02;3.80;;;16.00;99.90;;;14.81;90.48;102432.38;2567390;30;138986;-40
2021/09/01 07:30:06;;;;;;;9.25;3.53;;;16.00;99.90;;;14.84;90.69;102444.84;2566891;30;137799;-41
2021/09/01 07:32:34;;;;;;;11.52;3.97;;;16.00;99.90;;;14.82;90.35;102448.66;2567717;30;136796;-41
2021/09/01 07:35:03;;;;;;;12.57;4.07;;;16.00;99.90;;;14.80;90.40;102447.16;2568230;30;137519;-41
2021/09/01 07:37:31;;;;;;;10.70;4.00;;;16.00;99.90;;;14.89;90.85;102464.34;2568009;30;138333;-40
2021/09/01 07:39:58;;;;;;;9.65;4.10;;;16.10;99.90;;;14.90;91.01;102458.63;2568628;30;137059;-40
2021/09/01 07:42:26;;;;;;;9.27;3.85;;;16.10;99.90;;;14.91;90.95;102470.50;2567901;30;139213;-41
2021/09/01 07:44:53;;;;;;;11.10;4.20;;;16.10;99.90;;;14.90;90.14;102474.28;2568440;30;137729;-43
2021/09/01 07:47:21;;;;;;;12.20;4.15;;;16.10;99.90;;;14.89;89.25;102472.59;2567998;30;137859;-40
2021/09/01 07:49:49;;;;;;;7.90;4.05;;;16.10;99.90;;;14.87;88.62;102463.72;2566445;30;136857;-41
2021/09/01 07:52:16;;;;;;;9.18;4.05;;;16.10;99.90;;;14.94;89.92;102475.59;2568123;30;138224;-42
2021/09/01 07:54:44;;;;;;;6.93;3.78;;;16.10;99.90;;;14.95;89.97;102485.53;2566635;30;137852;-41
2021/09/01 07:57:12;;;;;;;9.93;4.55;;;16.20;99.90;;;14.95;89.25;102489.09;2568454;30;138110;-41
2021/09/01 07:59:39;;;;;;;;;;;16.20;99.90;;;14.99;89.99;102494.22;2568866;30;138304;-41
2021/09/01 08:02:07;;;;;;;11.55;4.68;;;16.20;99.90;;;14.99;89.82;102499.72;2568857;30;138432;-40
2021/09/01 08:04:34;;;;;;;;;;;16.20;99.90;;;14.98;89.52;102501.59;2568165;30;137660;-42
2021/09/01 08:07:02;;;;;;;7.78;3.70;;;16.20;99.90;;;14.99;89.15;102499.72;2567789;30;136845;-41
2021/09/01 08:09:30;;;;;;;12.65;4.28;;;16.20;99.90;;;15.06;90.58;102497.84;2569001;30;136803;-41
2021/09/01 08:11:57;;;;;;;8.00;3.92;;;16.20;99.90;;;15.04;89.68;102498.03;2568476;30;138410;-41
2021/09/01 08:14:25;;;;;;;9.23;4.38;;;16.20;99.90;;;15.05;89.94;102507.16;2567733;30;137692;-42
2021/09/01 08:16:52;;;;;;;10.88;4.10;;;16.20;99.90;;;15.08;90.69;102513.06;2568142;30;138351;-41
2021/09/01 08:19:20;;;;;;;10.18;4.45;;;16.30;99.90;;;15.06;89.21;102506.09;2568965;30;137471;-41
2021/09/01 08:21:47;;;;;;;7.80;3.33;;;16.30;99.90;;;15.04;89.47;102509.03;2568053;30;137862;-43
2021/09/01 08:24:15;;;;;;;9.50;3.58;;;16.20;99.90;;;15.07;88.18;102510.53;2568373;30;136938;-46
2021/09/01 08:26:42;;;;;;;8.73;3.75;;;16.30;99.90;;;15.04;88.03;102509.03;2567409;30;138931;-41
2021/09/01 08:29:10;;;;;;;8.82;3.78;;;16.30;99.90;;;15.04;88.48;102511.78;2567611;30;136876;-42
2021/09/01 08:31:38;;;;;;;10.77;4.20;;;16.30;99.90;;;15.13;88.73;102511.66;2567069;30;138510;-41
2021/09/01 08:34:05;;;;;;;10.18;4.18;;;16.30;99.90;;;15.12;87.66;102510.78;2568787;30;136883;-41
2021/09/01 08:36:33;;;;;;;9.98;4.15;;;16.30;99.90;;;15.16;88.73;102516.75;2566819;30;137485;-41
2021/09/01 08:39:01;;;;;;;8.98;3.60;;;16.30;99.90;;;15.15;88.62;102521.38;2568797;30;137598;-41
2021/09/01 08:41:31;;;;;;;8.55;4.07;;;16.30;99.90;;;15.18;87.76;102526.47;2568130;30;138095;-40
2021/09/01 08:44:00;;;;;;;9.48;4.22;;;16.40;99.90;;;15.16;87.28;102524.97;2567697;30;139435;-43
2021/09/01 08:46:32;;;;;;;9.88;4.20;;;16.40;99.90;;;15.15;88.12;102520.53;2568111;30;137494;-41
2021/09/01 08:49:03;;;;;;;7.80;3.75;;;16.30;99.90;;;15.17;89.06;102521.19;2568668;30;137650;-41
2021/09/01 08:51:32;;;;;;;9.48;3.85;;;16.40;99.90;;;15.18;88.09;102515.47;2567165;30;138555;-41
2021/09/01 08:53:59;;;;;;;7.75;3.47;;;16.40;99.90;;;15.14;87.69;102516.94;2568688;30;137334;-43
2021/09/01 08:56:28;;;;;;;;;;;16.40;99.90;;;15.20;87.65;102520.78;2567405;30;138875;-42
2021/09/01 08:58:55;;;;;;;10.90;3.75;;;16.40;99.90;;;15.24;88.53;102527.56;2568700;30;137050;-42
2021/09/01 09:01:55;;;;;;;6.47;3.65;;;16.40;99.90;;;15.23;88.25;102525.88;2567930;30;137753;-41
2021/09/01 09:04:29;;;;;;;;;;;16.40;99.90;;;15.29;88.71;102522.31;2568114;30;136744;-40
2021/09/01 09:07:00;;;;;;;10.75;4.00;;;16.40;99.90;;;15.36;89.28;102516.84;2568130;30;138704;-41
2021/09/01 09:09:31;;;;;;;9.25;3.95;;;16.50;99.90;;;15.35;88.22;102520.66;2568806;30;138561;-41
2021/09/01 09:12:02;;;;;;;11.80;4.18;;;16.50;99.90;;;15.35;85.69;102521.47;2566423;30;137965;-41
2021/09/01 09:14:48;;;;;;;9.02;3.83;;;16.50;99.90;;;15.34;86.41;102522.53;2566098;30;137507;-40
2021/09/01 09:17:19;;;;;;;8.40;3.70;;;16.50;99.90;;;15.38;87.57;102515.59;2568376;30;136944;-41
2021/09/01 09:19:55;;;;;;;10.18;3.38;;;16.60;99.90;;;15.45;87.10;102515.59;2569213;30;137377;-41
2021/09/01 09:22:31;;;;;;;10.55;3.75;;;16.60;99.90;;;15.45;85.33;102517.53;2567731;30;137468;-41
2021/09/01 09:25:22;;;;;;;10.63;4.05;;;16.60;99.90;;;15.44;85.52;102516.66;2567899;30;138400;-42
2021/09/01 09:28:06;;;;;;;11.95;3.88;;;16.60;99.90;;;15.42;83.98;102521.53;2567362;30;138736;-40
2021/09/01 09:30:45;;;;;;;9.90;4.13;;;16.60;99.90;;;15.45;83.66;102528.53;2567508;30;137465;-41
2021/09/01 09:33:24;;;;;;;13.75;4.72;;;16.60;99.90;;;15.45;84.03;102526.59;2568478;30;137477;-41
2021/09/01 09:36:02;;;;;;;14.25;4.78;;;16.60;99.90;;;15.49;85.13;102530.66;2567596;30;138443;-41
2021/09/01 09:38:42;;;;;;;13.07;4.43;;;16.70;99.90;;;15.55;85.84;102534.50;2567482;30;137360;-41
2021/09/01 09:41:25;;;;;;;14.32;4.95;;;16.70;99.90;;;15.61;85.41;102535.59;2568854;30;137191;-41
2021/09/01 09:43:56;;;;;;;16.60;4.78;;;16.70;99.90;;;15.68;85.09;102530.94;2567339;30;138411;-41
2021/09/01 09:46:24;;;;;;;12.48;4.40;;;16.80;99.90;;;15.74;85.16;102534.78;2567748;30;137691;-41
2021/09/01 09:49:03;;;;;;;11.23;4.60;;;16.90;99.90;;;15.83;85.46;102536.28;2564051;30;139257;-41
2021/09/01 09:51:42;;;;;;;11.60;4.38;;;16.90;99.90;;;15.81;81.47;102533.75;2565573;30;138064;-41
2021/09/01 09:54:22;;;;;;;11.60;4.30;;;16.90;99.90;;;15.95;84.52;102540.19;2566996;30;138514;-41
2021/09/01 09:57:06;;;;;;;10.85;4.40;;;17.00;99.90;;;15.94;81.54;102541.25;2567457;30;137557;-43
2021/09/01 09:59:34;;;;;;;12.73;4.50;;;17.00;99.90;;;16.02;82.77;102533.84;2567808;30;137228;-41
2021/09/01 10:02:02;;;;;;;13.82;4.70;;;17.10;99.90;;;16.08;83.57;102533.00;2566527;30;137671;-41
2021/09/01 10:04:30;;;;;;;9.60;4.32;;;17.20;99.90;;;16.11;83.65;102532.59;2567556;30;138247;-42
2021/09/01 10:06:58;;;;;;;;;;;17.20;99.90;;;16.12;83.11;102523.28;2568274;30;137532;-42
2021/09/01 10:09:25;;;;;;;11.52;4.60;;;17.20;99.90;;;16.15;82.53;102528.38;2568460;30;138235;-41
2021/09/01 10:11:54;;;;;;;8.75;4.68;;;17.20;99.90;;;16.15;81.85;102519.28;2567291;30;136952;-41
2021/09/01 10:14:24;;;;;;;8.85;4.22;;;17.30;99.90;;;16.08;80.58;102520.13;2564625;30;138534;-41
2021/09/01 10:17:03;;;;;;;10.45;4.60;;;17.20;99.90;;;16.11;80.45;102518.81;2564455;30;138079;-41
2021/09/01 10:19:35;;;;;;;11.30;5.20;;;17.30;99.90;;;16.06;79.65;102518.63;2568136;30;138518;-41
2021/09/01 10:22:07;;;;;;;9.13;4.40;;;17.20;99.90;;;16.04;79.27;102518.81;2567448;30;138562;-41
2021/09/01 10:24:42;;;;;;;12.23;5.05;;;17.20;99.90;;;16.01;78.48;102518.41;2565359;30;138011;-41
2021/09/01 10:27:27;;;;;;;12.68;5.00;;;17.20;99.90;;;15.96;79.22;102517.13;2567044;30;136971;-40
2021/09/01 10:30:05;;;;;;;13.40;4.97;;;17.10;99.90;;;15.88;78.17;102517.28;2567138;30;136672;-40
2021/09/01 10:32:47;;;;;;;10.98;4.35;;;17.10;99.90;;;15.86;80.31;102513.88;2568055;30;137731;-41
2021/09/01 10:35:17;;;;;;;11.27;4.53;;;17.00;99.90;;;15.89;81.33;102512.66;2565967;30;139507;-41
2021/09/01 10:37:45;;;;;;;13.07;4.70;;;17.00;99.90;;;15.88;80.90;102506.28;2567405;30;139691;-41
2021/09/01 10:40:35;;;;;;;11.52;4.80;;;17.00;99.90;;;15.89;82.61;102507.97;2567337;30;138484;-41
2021/09/01 10:43:19;;;;;;;12.07;4.57;;;17.00;99.90;;;15.97;83.16;102509.69;2568083;30;137730;-42
2021/09/01 10:45:50;;;;;;;10.90;4.75;;;17.10;99.90;;;16.03;83.41;102516.28;2566629;30;137553;-41
2021/09/01 10:48:17;;;;;;;10.40;5.20;;;17.10;99.90;;;15.98;79.68;102513.31;2566765;30;137461;-41